ANA535 RJTT-RJOT
Flight info
| Callsign | ANA535 |
|---|---|
| Flight time | N/A |
| Altitude | 34000 |
| Route | NINOX Y28 IPLES Y207 ARASI Y20 WAKIT Y203 WIMPY |
| Aircraft | A321/M-SDE3FGHIRWY/LB1 |
Departure
| Time | 2026-04-30 07:35 |
|---|---|
| Airport | Tokyo Haneda International Airport (RJTT) |
Arrival
| Time | N/A |
|---|---|
| Airport | Takamatsu Airport (RJOT) |
| Time | Latitude | Longitude | Altitude | Speed | Heading |
|---|---|---|---|---|---|
| 2026-04-30 06:43 | 35.54524 | 139.78723 | 25 ft | 0 kts | 329° |
| 2026-04-30 07:21 | 35.54513 | 139.78731 | 27 ft | 4 kts | 329° |
| 2026-04-30 07:21 | 35.54489 | 139.78747 | 24 ft | 4 kts | 331° |
| 2026-04-30 07:21 | 35.54465 | 139.78763 | 26 ft | 4 kts | 332° |
| 2026-04-30 07:22 | 35.54421 | 139.78790 | 26 ft | 4 kts | 1° |
| 2026-04-30 07:22 | 35.54401 | 139.78778 | 26 ft | 4 kts | 55° |
| 2026-04-30 07:22 | 35.54393 | 139.78763 | 26 ft | 1 kts | 58° |
| 2026-04-30 07:23 | 35.54392 | 139.78761 | 26 ft | 0 kts | 58° |
| 2026-04-30 07:24 | 35.54394 | 139.78766 | 24 ft | 4 kts | 58° |
| 2026-04-30 07:25 | 35.54427 | 139.78831 | 26 ft | 14 kts | 58° |
| 2026-04-30 07:25 | 35.54484 | 139.78948 | 26 ft | 5 kts | 60° |
| 2026-04-30 07:25 | 35.54485 | 139.78948 | 26 ft | 0 kts | 60° |
| 2026-04-30 07:29 | 35.54489 | 139.78958 | 27 ft | 4 kts | 62° |
| 2026-04-30 07:29 | 35.54510 | 139.79006 | 25 ft | 10 kts | 62° |
| 2026-04-30 07:29 | 35.54554 | 139.79104 | 26 ft | 16 kts | 60° |
| 2026-04-30 07:29 | 35.54610 | 139.79224 | 25 ft | 16 kts | 59° |
| 2026-04-30 07:30 | 35.54563 | 139.79418 | 24 ft | 19 kts | 150° |
| 2026-04-30 07:30 | 35.54411 | 139.79524 | 24 ft | 27 kts | 150° |
| 2026-04-30 07:30 | 35.54251 | 139.79638 | 26 ft | 26 kts | 149° |
| 2026-04-30 07:31 | 35.54098 | 139.79747 | 24 ft | 25 kts | 150° |
| 2026-04-30 07:31 | 35.53952 | 139.79850 | 24 ft | 24 kts | 149° |
| 2026-04-30 07:31 | 35.53813 | 139.79950 | 25 ft | 22 kts | 150° |
| 2026-04-30 07:31 | 35.53680 | 139.80042 | 24 ft | 21 kts | 150° |
| 2026-04-30 07:32 | 35.53540 | 139.80142 | 24 ft | 26 kts | 150° |
| 2026-04-30 07:32 | 35.53388 | 139.80251 | 26 ft | 25 kts | 150° |
| 2026-04-30 07:32 | 35.53217 | 139.80373 | 24 ft | 29 kts | 150° |
| 2026-04-30 07:32 | 35.53048 | 139.80492 | 23 ft | 25 kts | 150° |
| 2026-04-30 07:33 | 35.52908 | 139.80581 | 25 ft | 18 kts | 176° |
| 2026-04-30 07:33 | 35.52812 | 139.80501 | 24 ft | 16 kts | 223° |
| 2026-04-30 07:33 | 35.52732 | 139.80411 | 23 ft | 15 kts | 222° |
| 2026-04-30 07:33 | 35.52646 | 139.80314 | 25 ft | 18 kts | 221° |
| 2026-04-30 07:34 | 35.52554 | 139.80222 | 23 ft | 16 kts | 200° |
| 2026-04-30 07:34 | 35.52470 | 139.80285 | 25 ft | 14 kts | 133° |
| 2026-04-30 07:34 | 35.52448 | 139.80390 | 23 ft | 13 kts | 63° |
| 2026-04-30 07:34 | 35.52539 | 139.80498 | 23 ft | 37 kts | 42° |
| 2026-04-30 07:35 | 35.52919 | 139.80923 | 23 ft | 107 kts | 42° |
| 2026-04-30 07:35 | 35.53607 | 139.81697 | 45 ft | 157 kts | 43° |
| 2026-04-30 07:35 | 35.54397 | 139.82623 | 639 ft | 160 kts | 43° |
| 2026-04-30 07:35 | 35.55207 | 139.83547 | 1354 ft | 158 kts | 43° |
| 2026-04-30 07:36 | 35.56006 | 139.84483 | 1965 ft | 162 kts | 51° |
| 2026-04-30 07:36 | 35.56354 | 139.85840 | 2161 ft | 182 kts | 95° |
| 2026-04-30 07:36 | 35.56019 | 139.87426 | 2307 ft | 204 kts | 107° |
| 2026-04-30 07:36 | 35.55583 | 139.89192 | 2482 ft | 229 kts | 107° |
| 2026-04-30 07:37 | 35.55099 | 139.91154 | 2949 ft | 247 kts | 107° |
| 2026-04-30 07:37 | 35.54583 | 139.93185 | 3785 ft | 250 kts | 112° |
| 2026-04-30 07:37 | 35.53544 | 139.94880 | 4565 ft | 254 kts | 146° |
| 2026-04-30 07:37 | 35.51858 | 139.95532 | 5329 ft | 260 kts | 178° |
| 2026-04-30 07:38 | 35.50057 | 139.95318 | 6162 ft | 262 kts | 192° |
| 2026-04-30 07:38 | 35.48292 | 139.94748 | 7033 ft | 262 kts | 203° |
| 2026-04-30 07:38 | 35.46787 | 139.93495 | 7796 ft | 265 kts | 224° |
| 2026-04-30 07:38 | 35.45659 | 139.91688 | 8536 ft | 271 kts | 240° |
| 2026-04-30 07:39 | 35.45007 | 139.89527 | 9261 ft | 278 kts | 257° |
| 2026-04-30 07:39 | 35.44672 | 139.87180 | 10005 ft | 282 kts | 258° |
| 2026-04-30 07:39 | 35.44332 | 139.84751 | 10390 ft | 299 kts | 258° |
| 2026-04-30 07:39 | 35.43969 | 139.82139 | 10559 ft | 322 kts | 259° |
| 2026-04-30 07:40 | 35.43584 | 139.79343 | 10816 ft | 340 kts | 259° |
| 2026-04-30 07:40 | 35.43190 | 139.76462 | 11425 ft | 345 kts | 259° |
| 2026-04-30 07:40 | 35.42939 | 139.73520 | 12149 ft | 347 kts | 269° |
| 2026-04-30 07:40 | 35.43182 | 139.70580 | 12943 ft | 349 kts | 281° |
| 2026-04-30 07:41 | 35.43870 | 139.67726 | 13747 ft | 350 kts | 287° |
| 2026-04-30 07:41 | 35.44622 | 139.64891 | 14487 ft | 350 kts | 287° |
| 2026-04-30 07:41 | 35.45370 | 139.62044 | 15143 ft | 351 kts | 286° |
| 2026-04-30 07:41 | 35.46116 | 139.59175 | 15764 ft | 354 kts | 286° |
| 2026-04-30 07:42 | 35.46862 | 139.56287 | 16365 ft | 357 kts | 286° |
| 2026-04-30 07:42 | 35.47618 | 139.53373 | 16950 ft | 360 kts | 286° |
| 2026-04-30 07:42 | 35.48312 | 139.50410 | 17512 ft | 362 kts | 280° |
| 2026-04-30 07:42 | 35.48584 | 139.47333 | 18059 ft | 365 kts | 272° |
| 2026-04-30 07:43 | 35.48706 | 139.44210 | 18624 ft | 367 kts | 272° |
| 2026-04-30 07:43 | 35.48833 | 139.41066 | 19127 ft | 369 kts | 272° |
| 2026-04-30 07:43 | 35.48961 | 139.37917 | 19671 ft | 370 kts | 272° |
| 2026-04-30 07:43 | 35.49087 | 139.34771 | 20233 ft | 370 kts | 272° |
| 2026-04-30 07:44 | 35.49212 | 139.31622 | 20789 ft | 370 kts | 272° |
| 2026-04-30 07:44 | 35.49340 | 139.28471 | 21341 ft | 370 kts | 272° |
| 2026-04-30 07:44 | 35.49471 | 139.25312 | 21886 ft | 370 kts | 272° |
| 2026-04-30 07:44 | 35.49599 | 139.22161 | 22438 ft | 370 kts | 272° |
| 2026-04-30 07:45 | 35.49724 | 139.19003 | 22921 ft | 371 kts | 272° |
| 2026-04-30 07:45 | 35.49792 | 139.15852 | 23430 ft | 370 kts | 268° |
| 2026-04-30 07:45 | 35.49637 | 139.12688 | 23899 ft | 371 kts | 267° |
| 2026-04-30 07:45 | 35.49480 | 139.09520 | 24309 ft | 372 kts | 267° |
| 2026-04-30 07:46 | 35.49324 | 139.06369 | 24634 ft | 375 kts | 266° |
| 2026-04-30 07:46 | 35.49168 | 139.03164 | 24969 ft | 378 kts | 266° |
| 2026-04-30 07:46 | 35.49014 | 138.99935 | 25324 ft | 380 kts | 266° |
| 2026-04-30 07:46 | 35.48860 | 138.96692 | 25679 ft | 382 kts | 266° |
| 2026-04-30 07:47 | 35.48703 | 138.93420 | 26019 ft | 385 kts | 265° |
| 2026-04-30 07:47 | 35.48542 | 138.90132 | 26349 ft | 387 kts | 265° |
| 2026-04-30 07:47 | 35.48378 | 138.86831 | 26655 ft | 389 kts | 265° |
| 2026-04-30 07:47 | 35.48212 | 138.83504 | 27020 ft | 391 kts | 265° |
| 2026-04-30 07:48 | 35.48042 | 138.80170 | 27410 ft | 392 kts | 265° |
| 2026-04-30 07:48 | 35.47873 | 138.76864 | 27730 ft | 393 kts | 264° |
| 2026-04-30 07:48 | 35.47701 | 138.73500 | 28017 ft | 396 kts | 264° |
| 2026-04-30 07:48 | 35.47526 | 138.70121 | 28309 ft | 398 kts | 264° |
| 2026-04-30 07:49 | 35.47350 | 138.66724 | 28601 ft | 400 kts | 264° |
| 2026-04-30 07:49 | 35.47174 | 138.63312 | 28878 ft | 402 kts | 264° |
| 2026-04-30 07:49 | 35.46997 | 138.59874 | 29137 ft | 405 kts | 263° |
| 2026-04-30 07:49 | 35.46812 | 138.56415 | 29403 ft | 407 kts | 263° |
| 2026-04-30 07:50 | 35.46623 | 138.52926 | 29681 ft | 409 kts | 263° |
| 2026-04-30 07:50 | 35.46437 | 138.49447 | 30060 ft | 409 kts | 263° |
| 2026-04-30 07:50 | 35.46252 | 138.45975 | 30424 ft | 408 kts | 263° |
| 2026-04-30 07:50 | 35.46067 | 138.42502 | 30796 ft | 406 kts | 263° |
| 2026-04-30 07:51 | 35.45882 | 138.39045 | 31171 ft | 404 kts | 263° |
| 2026-04-30 07:51 | 35.45698 | 138.35669 | 31555 ft | 401 kts | 263° |
| 2026-04-30 07:51 | 35.45509 | 138.32231 | 32023 ft | 397 kts | 262° |
| 2026-04-30 07:51 | 35.45323 | 138.28877 | 32485 ft | 391 kts | 262° |
| 2026-04-30 07:52 | 35.45142 | 138.25614 | 32963 ft | 386 kts | 262° |
| 2026-04-30 07:52 | 35.44958 | 138.22306 | 33461 ft | 382 kts | 262° |
| 2026-04-30 07:52 | 35.44780 | 138.19123 | 33975 ft | 378 kts | 262° |
| 2026-04-30 07:52 | 35.44600 | 138.15918 | 34142 ft | 374 kts | 262° |
| 2026-04-30 07:53 | 35.44421 | 138.12770 | 34169 ft | 368 kts | 262° |
| 2026-04-30 07:53 | 35.44068 | 138.06557 | 34170 ft | 364 kts | 262° |
| 2026-04-30 07:54 | 35.43717 | 138.00368 | 34156 ft | 363 kts | 261° |
| 2026-04-30 07:54 | 35.43360 | 137.94206 | 34152 ft | 363 kts | 261° |
| 2026-04-30 07:55 | 35.42995 | 137.88015 | 34144 ft | 364 kts | 261° |
| 2026-04-30 07:55 | 35.42626 | 137.81840 | 34143 ft | 363 kts | 261° |
| 2026-04-30 07:56 | 35.42247 | 137.75650 | 34145 ft | 363 kts | 261° |
| 2026-04-30 07:56 | 35.41789 | 137.69493 | 34138 ft | 363 kts | 260° |
| 2026-04-30 07:57 | 35.41302 | 137.63334 | 34129 ft | 363 kts | 260° |
| 2026-04-30 07:57 | 35.40829 | 137.57172 | 34124 ft | 363 kts | 260° |
| 2026-04-30 07:58 | 35.40238 | 137.51028 | 34113 ft | 363 kts | 258° |
| 2026-04-30 07:58 | 35.39483 | 137.44902 | 34112 ft | 363 kts | 257° |
| 2026-04-30 07:59 | 35.38717 | 137.38790 | 34113 ft | 363 kts | 258° |
| 2026-04-30 07:59 | 35.37981 | 137.32695 | 34105 ft | 364 kts | 258° |
| 2026-04-30 08:00 | 35.36887 | 137.23473 | 34120 ft | 364 kts | 258° |
| 2026-04-30 08:00 | 35.36156 | 137.17327 | 34113 ft | 365 kts | 258° |
| 2026-04-30 08:01 | 35.35420 | 137.11184 | 34107 ft | 365 kts | 257° |
| 2026-04-30 08:01 | 35.34676 | 137.05034 | 34105 ft | 365 kts | 257° |
| 2026-04-30 08:02 | 35.33556 | 136.95845 | 34101 ft | 365 kts | 257° |
| 2026-04-30 08:03 | 35.32045 | 136.83502 | 34093 ft | 365 kts | 257° |
| 2026-04-30 08:04 | 35.31297 | 136.77390 | 34097 ft | 366 kts | 257° |
| 2026-04-30 08:04 | 35.30536 | 136.71223 | 34093 ft | 366 kts | 257° |
| 2026-04-30 08:05 | 35.29763 | 136.65069 | 34107 ft | 366 kts | 256° |
| 2026-04-30 08:05 | 35.28991 | 136.58911 | 34101 ft | 366 kts | 256° |
| 2026-04-30 08:06 | 35.28222 | 136.52757 | 34108 ft | 365 kts | 256° |
| 2026-04-30 08:06 | 35.27451 | 136.46604 | 34109 ft | 364 kts | 256° |
| 2026-04-30 08:07 | 35.26673 | 136.40500 | 34097 ft | 362 kts | 256° |
| 2026-04-30 08:07 | 35.25897 | 136.34394 | 34086 ft | 363 kts | 256° |
| 2026-04-30 08:08 | 35.25121 | 136.28293 | 34088 ft | 362 kts | 256° |
| 2026-04-30 08:08 | 35.24339 | 136.22213 | 34088 ft | 361 kts | 256° |
| 2026-04-30 08:09 | 35.23549 | 136.16147 | 34086 ft | 361 kts | 255° |
| 2026-04-30 08:09 | 35.22690 | 136.10114 | 34085 ft | 360 kts | 255° |
| 2026-04-30 08:10 | 35.21789 | 136.04095 | 34092 ft | 359 kts | 255° |
| 2026-04-30 08:10 | 35.20907 | 135.98140 | 34087 ft | 358 kts | 255° |
| 2026-04-30 08:11 | 35.20030 | 135.92151 | 34074 ft | 358 kts | 255° |
| 2026-04-30 08:11 | 35.19148 | 135.86160 | 34073 ft | 357 kts | 254° |
| 2026-04-30 08:12 | 35.18258 | 135.80180 | 34057 ft | 357 kts | 255° |
| 2026-04-30 08:12 | 35.17304 | 135.74221 | 33799 ft | 358 kts | 253° |
| 2026-04-30 08:12 | 35.16968 | 135.72241 | 33624 ft | 358 kts | 253° |
| 2026-04-30 08:13 | 35.16453 | 135.69257 | 33364 ft | 359 kts | 253° |
| 2026-04-30 08:13 | 35.15936 | 135.66264 | 33107 ft | 360 kts | 253° |
| 2026-04-30 08:13 | 35.15422 | 135.63266 | 32853 ft | 362 kts | 253° |
| 2026-04-30 08:13 | 35.14912 | 135.60253 | 32598 ft | 362 kts | 254° |
| 2026-04-30 08:14 | 35.14404 | 135.57227 | 32342 ft | 364 kts | 254° |
| 2026-04-30 08:14 | 35.13894 | 135.54196 | 32095 ft | 365 kts | 253° |
| 2026-04-30 08:14 | 35.13380 | 135.51152 | 31838 ft | 367 kts | 254° |
| 2026-04-30 08:14 | 35.12861 | 135.48090 | 31623 ft | 368 kts | 254° |
| 2026-04-30 08:15 | 35.12339 | 135.45030 | 31118 ft | 367 kts | 254° |
| 2026-04-30 08:15 | 35.11821 | 135.41992 | 30699 ft | 363 kts | 254° |
| 2026-04-30 08:15 | 35.11309 | 135.38991 | 30232 ft | 359 kts | 255° |
| 2026-04-30 08:15 | 35.10804 | 135.36019 | 29731 ft | 356 kts | 255° |
| 2026-04-30 08:16 | 35.10302 | 135.33076 | 29276 ft | 352 kts | 255° |
| 2026-04-30 08:16 | 35.09805 | 135.30168 | 28829 ft | 347 kts | 255° |
| 2026-04-30 08:16 | 35.09311 | 135.27299 | 28354 ft | 343 kts | 255° |
| 2026-04-30 08:16 | 35.08817 | 135.24448 | 27801 ft | 343 kts | 255° |
| 2026-04-30 08:17 | 35.08324 | 135.21602 | 27263 ft | 342 kts | 255° |
| 2026-04-30 08:17 | 35.07839 | 135.18802 | 26752 ft | 341 kts | 255° |
| 2026-04-30 08:17 | 35.07348 | 135.15976 | 26231 ft | 340 kts | 255° |
| 2026-04-30 08:17 | 35.06858 | 135.13152 | 25729 ft | 340 kts | 255° |
| 2026-04-30 08:18 | 35.06367 | 135.10327 | 25204 ft | 340 kts | 255° |
| 2026-04-30 08:18 | 35.05880 | 135.07513 | 24709 ft | 339 kts | 255° |
| 2026-04-30 08:18 | 35.05390 | 135.04697 | 24215 ft | 338 kts | 255° |
| 2026-04-30 08:18 | 35.04900 | 135.01899 | 23746 ft | 337 kts | 256° |
| 2026-04-30 08:19 | 35.04411 | 134.99100 | 23230 ft | 337 kts | 256° |
| 2026-04-30 08:19 | 35.03900 | 134.96316 | 22767 ft | 334 kts | 252° |
| 2026-04-30 08:19 | 35.03017 | 134.93722 | 22316 ft | 330 kts | 240° |
| 2026-04-30 08:19 | 35.01667 | 134.91466 | 21881 ft | 328 kts | 228° |
| 2026-04-30 08:20 | 34.99935 | 134.89653 | 21448 ft | 329 kts | 218° |
| 2026-04-30 08:20 | 34.98066 | 134.88056 | 21024 ft | 327 kts | 218° |
| 2026-04-30 08:20 | 34.96209 | 134.86459 | 20583 ft | 326 kts | 219° |
| 2026-04-30 08:20 | 34.94363 | 134.84862 | 20151 ft | 325 kts | 219° |
| 2026-04-30 08:21 | 34.92519 | 134.83267 | 19722 ft | 324 kts | 219° |
| 2026-04-30 08:21 | 34.90680 | 134.81680 | 19290 ft | 325 kts | 219° |
| 2026-04-30 08:21 | 34.88836 | 134.80090 | 18834 ft | 325 kts | 219° |
| 2026-04-30 08:21 | 34.86992 | 134.78500 | 18388 ft | 325 kts | 219° |
| 2026-04-30 08:22 | 34.85138 | 134.76907 | 17868 ft | 325 kts | 219° |
| 2026-04-30 08:22 | 34.83291 | 134.75318 | 17427 ft | 324 kts | 219° |
| 2026-04-30 08:22 | 34.81449 | 134.73736 | 16984 ft | 323 kts | 219° |
| 2026-04-30 08:22 | 34.79623 | 134.72167 | 16540 ft | 321 kts | 218° |
| 2026-04-30 08:23 | 34.77798 | 134.70599 | 16104 ft | 320 kts | 218° |
| 2026-04-30 08:23 | 34.76006 | 134.69059 | 15665 ft | 319 kts | 218° |
| 2026-04-30 08:23 | 34.74198 | 134.67504 | 15239 ft | 318 kts | 218° |
| 2026-04-30 08:23 | 34.72392 | 134.65952 | 14812 ft | 317 kts | 218° |
| 2026-04-30 08:24 | 34.70595 | 134.64412 | 14382 ft | 317 kts | 218° |
| 2026-04-30 08:24 | 34.68795 | 134.62869 | 13957 ft | 316 kts | 218° |
| 2026-04-30 08:24 | 34.67002 | 134.61334 | 13502 ft | 315 kts | 217° |
| 2026-04-30 08:24 | 34.65212 | 134.59805 | 13023 ft | 314 kts | 217° |
| 2026-04-30 08:25 | 34.63435 | 134.58286 | 12635 ft | 311 kts | 217° |
| 2026-04-30 08:25 | 34.61679 | 134.56785 | 12212 ft | 309 kts | 216° |
| 2026-04-30 08:25 | 34.59928 | 134.55289 | 11790 ft | 306 kts | 216° |
| 2026-04-30 08:25 | 34.58187 | 134.53803 | 11368 ft | 304 kts | 216° |
| 2026-04-30 08:26 | 34.56458 | 134.52328 | 10935 ft | 303 kts | 216° |
| 2026-04-30 08:26 | 34.54739 | 134.50864 | 10532 ft | 301 kts | 215° |
| 2026-04-30 08:26 | 34.53055 | 134.49428 | 10397 ft | 292 kts | 215° |
| 2026-04-30 08:26 | 34.51418 | 134.48032 | 10275 ft | 283 kts | 215° |
| 2026-04-30 08:27 | 34.49821 | 134.46671 | 10152 ft | 278 kts | 215° |
| 2026-04-30 08:27 | 34.48253 | 134.45335 | 10071 ft | 275 kts | 214° |
| 2026-04-30 08:27 | 34.46686 | 134.43999 | 9839 ft | 278 kts | 214° |
| 2026-04-30 08:27 | 34.45073 | 134.42626 | 9378 ft | 284 kts | 214° |
| 2026-04-30 08:28 | 34.43479 | 134.41272 | 9177 ft | 277 kts | 214° |
| 2026-04-30 08:28 | 34.41907 | 134.39936 | 8792 ft | 275 kts | 213° |
| 2026-04-30 08:28 | 34.40361 | 134.38622 | 8398 ft | 274 kts | 213° |
| 2026-04-30 08:28 | 34.38809 | 134.37303 | 8016 ft | 272 kts | 212° |
| 2026-04-30 08:29 | 34.37267 | 134.35992 | 7644 ft | 270 kts | 212° |
| 2026-04-30 08:29 | 34.35743 | 134.34697 | 7044 ft | 265 kts | 211° |
| 2026-04-30 08:29 | 34.34244 | 134.33425 | 6359 ft | 261 kts | 210° |
| 2026-04-30 08:29 | 34.32769 | 134.32172 | 5674 ft | 256 kts | 210° |
| 2026-04-30 08:30 | 34.31356 | 134.30972 | 5351 ft | 238 kts | 209° |
| 2026-04-30 08:30 | 34.30039 | 134.29852 | 5230 ft | 229 kts | 208° |
| 2026-04-30 08:30 | 34.28786 | 134.28678 | 5091 ft | 231 kts | 218° |
| 2026-04-30 08:30 | 34.27873 | 134.27003 | 4716 ft | 250 kts | 242° |
| 2026-04-30 08:31 | 34.27346 | 134.24991 | 4379 ft | 249 kts | 245° |
| 2026-04-30 08:31 | 34.26850 | 134.22990 | 4005 ft | 247 kts | 245° |
| 2026-04-30 08:31 | 34.26366 | 134.21058 | 3684 ft | 234 kts | 245° |
| 2026-04-30 08:31 | 34.25902 | 134.19224 | 3404 ft | 225 kts | 245° |
| 2026-04-30 08:32 | 34.25442 | 134.17423 | 3097 ft | 223 kts | 246° |
| 2026-04-30 08:32 | 34.25257 | 134.16699 | 2968 ft | 222 kts | 246° |